createdAt,value
2022-12-03T00:01:48.418Z,79.74
2022-12-03T00:04:16.734Z,79.83
2022-12-03T00:06:45.737Z,79.68
2022-12-03T00:09:14.267Z,79.61
2022-12-03T00:11:42.538Z,79.75
2022-12-03T00:14:11.635Z,79.92
2022-12-03T00:16:41.364Z,80.34
2022-12-03T00:19:09.595Z,80.04
2022-12-03T00:21:38.873Z,79.67
2022-12-03T00:24:07.862Z,79.79
2022-12-03T00:26:36.095Z,79.63
2022-12-03T00:29:05.557Z,79.78
2022-12-03T00:31:33.816Z,79.67
2022-12-03T00:34:03.646Z,79.52
2022-12-03T00:36:32.052Z,79.85
2022-12-03T00:39:00.346Z,79.81
2022-12-03T00:41:28.680Z,79.72
2022-12-03T00:43:57.876Z,79.90
2022-12-03T00:46:26.283Z,79.63
2022-12-03T00:48:54.685Z,79.92
2022-12-03T00:51:25.060Z,80.03
2022-12-03T00:53:53.308Z,79.57
2022-12-03T00:56:21.602Z,79.73
2022-12-03T00:58:51.559Z,79.54
2022-12-03T01:01:20.063Z,79.55
2022-12-03T01:03:48.390Z,79.63
2022-12-03T01:06:16.620Z,79.75
2022-12-03T01:08:46.241Z,79.64
2022-12-03T01:11:28.334Z,79.38
2022-12-03T01:13:56.604Z,79.68
2022-12-03T01:16:24.991Z,79.49
2022-12-03T01:18:53.895Z,79.85
2022-12-03T01:21:22.182Z,79.79
2022-12-03T01:23:52.125Z,80.04
2022-12-03T01:26:20.405Z,79.86
2022-12-03T01:28:49.278Z,80.31
2022-12-03T01:31:35.182Z,80.61
2022-12-03T01:34:03.477Z,80.83
2022-12-03T01:36:34.342Z,80.68
2022-12-03T01:39:05.724Z,80.73
2022-12-03T01:41:35.412Z,80.55
2022-12-03T01:44:05.816Z,80.37
2022-12-03T01:46:40.358Z,80.41
2022-12-03T01:49:15.872Z,80.16
2022-12-03T01:51:44.453Z,79.38
2022-12-03T01:54:19.379Z,78.71
2022-12-03T01:56:49.344Z,78.15
2022-12-03T01:59:18.448Z,77.78
2022-12-03T02:01:47.464Z,77.55
2022-12-03T02:04:18.371Z,76.88
2022-12-03T02:06:46.773Z,76.98
2022-12-03T02:09:16.655Z,76.90
2022-12-03T02:11:48.151Z,76.95
2022-12-03T02:14:21.737Z,76.94
2022-12-03T02:16:50.354Z,77.25
2022-12-03T02:19:25.526Z,77.42
2022-12-03T02:22:02.016Z,77.60
2022-12-03T02:24:43.637Z,77.89
2022-12-03T02:27:13.797Z,77.41
2022-12-03T02:29:42.211Z,77.50
2022-12-03T02:32:10.736Z,77.43
2022-12-03T02:34:41.144Z,77.66
2022-12-03T02:37:13.082Z,77.38
2022-12-03T02:39:45.432Z,77.46
2022-12-03T02:42:33.075Z,77.28
2022-12-03T02:45:05.461Z,77.40
2022-12-03T02:47:36.064Z,77.30
2022-12-03T02:50:05.966Z,77.27
2022-12-03T02:52:34.298Z,76.90
2022-12-03T02:55:04.048Z,76.75
2022-12-03T02:57:34.051Z,76.83
2022-12-03T03:00:02.562Z,76.66
2022-12-03T03:02:30.865Z,76.09
2022-12-03T03:04:59.889Z,76.40
2022-12-03T03:07:28.236Z,76.18
2022-12-03T03:09:57.460Z,76.65
2022-12-03T03:12:25.762Z,76.53
2022-12-03T03:14:56.294Z,76.59
2022-12-03T03:17:25.493Z,76.56
2022-12-03T03:19:53.867Z,76.61
2022-12-03T03:22:22.095Z,77.02
2022-12-03T03:24:50.581Z,77.06
2022-12-03T03:27:19.240Z,77.34
2022-12-03T03:29:47.610Z,77.51
2022-12-03T03:32:17.440Z,77.94
2022-12-03T03:34:45.813Z,78.24
2022-12-03T03:37:14.024Z,78.53
2022-12-03T03:39:42.313Z,78.38
2022-12-03T03:42:10.754Z,78.62
2022-12-03T03:44:39.212Z,79.11
2022-12-03T03:47:07.940Z,79.79
2022-12-03T03:49:38.081Z,80.79
2022-12-03T03:52:06.733Z,81.10
2022-12-03T03:54:35.149Z,80.64
2022-12-03T03:57:03.521Z,80.56
2022-12-03T03:59:31.870Z,80.77
2022-12-03T04:02:00.172Z,80.86
2022-12-03T04:04:32.794Z,80.78
2022-12-03T04:07:02.624Z,80.62
2022-12-03T04:09:30.908Z,80.80
2022-12-03T04:12:16.640Z,80.86
2022-12-03T04:14:44.861Z,81.13
2022-12-03T04:17:13.072Z,81.20
2022-12-03T04:19:41.371Z,81.52
2022-12-03T04:22:27.442Z,81.58
2022-12-03T04:25:16.386Z,81.52
2022-12-03T04:28:02.336Z,81.14
2022-12-03T04:30:30.829Z,81.14
2022-12-03T04:33:16.917Z,80.83
2022-12-03T04:35:45.541Z,80.56
2022-12-03T04:38:17.067Z,80.51
2022-12-03T04:41:01.710Z,80.78
2022-12-03T04:43:30.470Z,80.18
2022-12-03T04:45:58.928Z,80.42
2022-12-03T04:48:27.785Z,80.18
2022-12-03T04:50:55.959Z,80.33
2022-12-03T04:53:25.612Z,80.23
2022-12-03T04:55:53.854Z,80.33
2022-12-03T04:58:22.934Z,80.57
2022-12-03T05:00:51.449Z,80.47
2022-12-03T05:03:19.723Z,80.13
2022-12-03T05:05:48.132Z,80.38
2022-12-03T05:08:16.431Z,80.06
2022-12-03T05:10:46.394Z,80.38
2022-12-03T05:13:14.878Z,80.53
2022-12-03T05:15:43.104Z,81.13
2022-12-03T05:18:11.407Z,81.11
2022-12-03T05:20:52.760Z,81.10
2022-12-03T05:23:22.138Z,81.35
2022-12-03T05:25:51.781Z,81.09
2022-12-03T05:28:22.240Z,81.24
2022-12-03T05:30:51.081Z,81.24
2022-12-03T05:33:20.588Z,81.43
2022-12-03T05:35:49.229Z,81.70
2022-12-03T05:38:17.723Z,81.57
2022-12-03T05:40:46.183Z,81.47
2022-12-03T05:43:15.057Z,81.29
2022-12-03T05:45:44.811Z,81.40
2022-12-03T05:48:15.558Z,81.66
2022-12-03T05:50:45.620Z,82.15
2022-12-03T05:53:18.220Z,82.29
2022-12-03T05:55:47.059Z,82.57
2022-12-03T05:58:16.961Z,82.33
2022-12-03T06:00:45.449Z,82.46
2022-12-03T06:03:13.747Z,82.20
2022-12-03T06:05:42.381Z,82.05
2022-12-03T06:08:10.691Z,81.70
2022-12-03T06:10:39.188Z,81.51
2022-12-03T06:13:07.422Z,81.63
2022-12-03T06:15:43.330Z,81.59
2022-12-03T06:18:12.151Z,81.45
2022-12-03T06:20:40.437Z,81.46
2022-12-03T06:23:08.725Z,81.48
2022-12-03T06:25:36.950Z,81.32
2022-12-03T06:28:07.520Z,81.04
2022-12-03T06:30:37.189Z,81.49
2022-12-03T06:33:05.485Z,81.48
2022-12-03T06:35:33.705Z,81.58
2022-12-03T06:38:02.036Z,81.25
2022-12-03T06:40:30.257Z,81.60
2022-12-03T06:42:58.576Z,81.45
2022-12-03T06:45:26.852Z,81.63
2022-12-03T06:47:56.692Z,81.55
2022-12-03T06:50:25.232Z,81.56
2022-12-03T06:52:53.559Z,81.80
2022-12-03T06:55:23.105Z,81.59
2022-12-03T06:57:51.702Z,81.89
2022-12-03T07:00:20.999Z,81.91
2022-12-03T07:02:49.536Z,81.87
2022-12-03T07:05:20.089Z,81.84
2022-12-03T07:07:52.075Z,81.30
2022-12-03T07:10:20.985Z,81.71
2022-12-03T07:12:49.257Z,81.43
2022-12-03T07:15:18.021Z,81.41
2022-12-03T07:17:46.342Z,81.22
2022-12-03T07:20:18.325Z,81.25
2022-12-03T07:22:46.885Z,80.73
2022-12-03T07:25:19.657Z,81.09
2022-12-03T07:27:51.344Z,81.15
2022-12-03T07:30:19.967Z,80.82
2022-12-03T07:32:48.217Z,80.80
2022-12-03T07:35:16.640Z,80.67
2022-12-03T07:37:46.805Z,80.71
2022-12-03T07:40:15.592Z,80.41
2022-12-03T07:42:44.141Z,80.67
2022-12-03T07:45:12.783Z,80.24
2022-12-03T07:47:41.250Z,80.34
2022-12-03T07:50:11.250Z,80.17
2022-12-03T07:52:39.867Z,79.69
2022-12-03T07:55:11.814Z,79.29
2022-12-03T07:57:40.494Z,79.39
2022-12-03T08:00:09.646Z,79.63
2022-12-03T08:02:37.930Z,79.04
2022-12-03T08:05:07.409Z,78.95
2022-12-03T08:07:36.278Z,78.73
2022-12-03T08:10:05.349Z,78.66
2022-12-03T08:12:42.951Z,78.14
2022-12-03T08:15:13.709Z,78.14
2022-12-03T08:17:43.497Z,77.97
2022-12-03T08:20:17.072Z,77.51
2022-12-03T08:22:47.747Z,77.50
2022-12-03T08:25:21.768Z,77.10
2022-12-03T08:27:52.751Z,76.89
2022-12-03T08:30:21.285Z,76.62
2022-12-03T08:32:50.129Z,76.50
2022-12-03T08:35:23.887Z,75.40
2022-12-03T08:37:58.861Z,74.91
2022-12-03T08:40:35.960Z,74.41
2022-12-03T08:43:18.672Z,75.07
2022-12-03T08:45:47.302Z,74.53
2022-12-03T08:48:33.924Z,73.36
2022-12-03T08:51:07.549Z,71.58
2022-12-03T08:53:37.954Z,71.41
2022-12-03T08:56:20.548Z,72.02
2022-12-03T08:58:52.984Z,72.77
2022-12-03T09:01:31.492Z,73.30
2022-12-03T09:04:16.398Z,72.82
2022-12-03T09:06:45.957Z,72.83
2022-12-03T09:09:14.218Z,71.49
2022-12-03T09:11:43.563Z,70.76
2022-12-03T09:14:18.500Z,68.64
2022-12-03T09:16:48.013Z,67.38
2022-12-03T09:19:16.818Z,65.13
2022-12-03T09:21:45.695Z,64.44
2022-12-03T09:24:14.233Z,65.16
2022-12-03T09:26:42.637Z,66.22
2022-12-03T09:29:12.927Z,67.86
2022-12-03T09:31:41.846Z,69.45
2022-12-03T09:34:12.528Z,70.54
2022-12-03T09:36:42.452Z,71.53
2022-12-03T09:39:11.478Z,72.17
2022-12-03T09:41:40.251Z,72.69
2022-12-03T09:44:15.856Z,73.57
2022-12-03T09:46:49.002Z,73.99
2022-12-03T09:49:19.758Z,74.31
2022-12-03T09:51:49.106Z,74.08
2022-12-03T09:54:25.028Z,74.58
2022-12-03T09:56:54.648Z,74.75
2022-12-03T09:59:25.010Z,74.53
2022-12-03T10:01:56.606Z,75.21
2022-12-03T10:04:25.592Z,75.52
2022-12-03T10:06:53.950Z,75.83
2022-12-03T10:09:27.282Z,76.01
2022-12-03T10:11:56.736Z,76.27
2022-12-03T10:14:25.333Z,76.67
2022-12-03T10:16:56.653Z,77.24
2022-12-03T10:19:30.443Z,77.20
2022-12-03T10:21:59.688Z,77.49
2022-12-03T10:24:30.135Z,77.67
2022-12-03T10:27:00.909Z,77.49
2022-12-03T10:29:33.997Z,78.14
2022-12-03T10:32:06.255Z,77.92
2022-12-03T10:34:37.863Z,78.18
2022-12-03T10:37:17.760Z,78.28
2022-12-03T10:40:00.675Z,78.67
2022-12-03T10:42:31.049Z,79.43
2022-12-03T10:45:13.451Z,79.59
2022-12-03T10:47:43.937Z,80.10
2022-12-03T10:50:21.443Z,80.43
2022-12-03T10:55:45.871Z,81.11
2022-12-03T10:58:23.165Z,80.28
2022-12-03T11:01:07.438Z,80.87
2022-12-03T11:03:38.068Z,80.76
2022-12-03T11:06:06.726Z,80.91
2022-12-03T11:08:37.797Z,81.54
2022-12-03T11:11:08.861Z,81.51
2022-12-03T11:13:52.582Z,81.62
2022-12-03T11:17:10.042Z,81.99
2022-12-03T11:19:53.046Z,82.88
2022-12-03T11:22:46.790Z,83.13
2022-12-03T11:25:50.402Z,83.19
2022-12-03T11:28:37.228Z,83.18
2022-12-03T11:31:12.445Z,83.27
2022-12-03T11:33:41.648Z,83.00
2022-12-03T11:36:36.408Z,82.51
2022-12-03T11:39:10.055Z,83.10
2022-12-03T11:41:38.239Z,83.33
2022-12-03T11:44:30.424Z,83.07
2022-12-03T11:47:00.810Z,83.70
2022-12-03T11:49:38.947Z,83.55
2022-12-03T11:52:25.164Z,83.31
2022-12-03T11:54:57.753Z,83.19
2022-12-03T11:57:36.655Z,82.16
2022-12-03T12:00:21.622Z,82.64
2022-12-03T12:02:51.250Z,82.71
2022-12-03T12:05:28.787Z,82.46
2022-12-03T12:07:59.444Z,82.22
2022-12-03T12:10:43.039Z,81.80
2022-12-03T12:13:52.348Z,81.65
2022-12-03T12:16:55.248Z,81.84
2022-12-03T12:19:37.665Z,81.87
2022-12-03T12:22:31.381Z,81.29
2022-12-03T12:25:02.027Z,81.75
2022-12-03T12:27:36.011Z,81.25
2022-12-03T12:30:09.839Z,81.27
2022-12-03T12:32:46.011Z,81.10
2022-12-03T12:35:18.528Z,80.58
2022-12-03T12:37:56.636Z,80.68
2022-12-03T12:40:31.120Z,80.05
2022-12-03T12:43:05.332Z,78.78
2022-12-03T12:45:37.238Z,78.41
2022-12-03T12:48:16.762Z,78.81
2022-12-03T12:50:46.512Z,78.88
2022-12-03T12:53:21.648Z,78.58
2022-12-03T12:55:56.532Z,78.38
2022-12-03T12:58:25.246Z,78.67
2022-12-03T13:00:55.321Z,78.99
2022-12-03T13:03:26.151Z,78.71
2022-12-03T13:05:55.458Z,78.72
2022-12-03T13:08:27.411Z,78.62
2022-12-03T13:10:58.962Z,78.55
2022-12-03T13:13:44.028Z,78.79
2022-12-03T13:16:19.035Z,78.33
2022-12-03T13:18:49.321Z,78.08
2022-12-03T13:21:39.257Z,78.19
2022-12-03T13:24:28.222Z,77.85
2022-12-03T13:26:58.367Z,78.29
2022-12-03T13:29:28.364Z,78.22
2022-12-03T13:31:59.979Z,78.28
2022-12-03T13:34:29.999Z,77.95
2022-12-03T13:36:58.898Z,78.04
2022-12-03T13:39:33.475Z,77.91
2022-12-03T13:42:38.063Z,78.14
2022-12-03T13:45:31.978Z,78.39
2022-12-03T13:48:02.183Z,78.21
2022-12-03T13:50:35.602Z,78.01
2022-12-03T13:53:08.547Z,78.17
2022-12-03T13:55:39.828Z,78.21
2022-12-03T13:58:09.976Z,78.66
2022-12-03T14:00:38.509Z,78.63
2022-12-03T14:03:08.420Z,78.33
2022-12-03T14:05:36.856Z,78.57
2022-12-03T14:08:06.270Z,79.20
2022-12-03T14:10:35.124Z,79.29
2022-12-03T14:13:03.370Z,79.26
2022-12-03T14:15:33.367Z,79.23
2022-12-03T14:18:02.427Z,79.07
2022-12-03T14:20:30.676Z,79.30
2022-12-03T14:22:59.655Z,79.07
2022-12-03T14:25:28.117Z,79.15
2022-12-03T14:27:56.462Z,78.91
2022-12-03T14:30:24.980Z,78.62
2022-12-03T14:32:55.432Z,78.16
2022-12-03T14:35:23.795Z,78.58
2022-12-03T14:37:52.018Z,78.50
2022-12-03T14:40:22.002Z,78.77
2022-12-03T14:42:50.581Z,78.50
2022-12-03T14:45:20.409Z,78.74
2022-12-03T14:47:49.228Z,78.81
2022-12-03T14:50:19.043Z,78.84
2022-12-03T14:52:47.301Z,78.48
2022-12-03T14:55:15.622Z,78.32
2022-12-03T14:57:43.955Z,78.15
2022-12-03T15:00:13.488Z,77.78
2022-12-03T15:02:42.221Z,77.75
2022-12-03T15:05:11.132Z,77.32
2022-12-03T15:07:40.903Z,77.89
2022-12-03T15:10:10.011Z,77.42
2022-12-03T15:12:38.349Z,77.78
2022-12-03T15:15:07.545Z,77.80
2022-12-03T15:17:35.969Z,77.18
2022-12-03T15:20:04.963Z,77.54
2022-12-03T15:22:33.360Z,77.17
2022-12-03T15:25:03.613Z,77.52
2022-12-03T15:27:31.925Z,76.81
2022-12-03T15:30:00.310Z,76.80
2022-12-03T15:32:28.662Z,76.17
2022-12-03T15:34:57.229Z,76.74
2022-12-03T15:37:27.717Z,76.46
2022-12-03T15:39:56.416Z,76.34
2022-12-03T15:42:28.191Z,76.52
2022-12-03T15:44:57.737Z,76.65
2022-12-03T15:47:26.384Z,76.49
2022-12-03T15:49:54.854Z,76.75
2022-12-03T15:52:23.574Z,76.38
2022-12-03T15:54:52.139Z,76.32
2022-12-03T15:57:20.937Z,76.41
2022-12-03T15:59:51.063Z,76.39
2022-12-03T16:02:19.615Z,76.22
2022-12-03T16:04:48.385Z,76.18
2022-12-03T16:07:16.940Z,76.15
2022-12-03T16:09:45.277Z,75.81
2022-12-03T16:12:13.543Z,75.66
2022-12-03T16:14:41.795Z,75.79
2022-12-03T16:17:11.549Z,75.70
2022-12-03T16:19:39.793Z,75.77
2022-12-03T16:22:08.122Z,75.75
2022-12-03T16:24:36.507Z,75.48
2022-12-03T16:27:05.070Z,75.45
2022-12-03T16:29:33.367Z,75.57
2022-12-03T16:32:01.774Z,75.38
2022-12-03T16:34:31.475Z,74.98
2022-12-03T16:37:00.160Z,75.21
2022-12-03T16:39:28.541Z,74.90
2022-12-03T16:41:56.822Z,75.04
2022-12-03T16:44:32.843Z,74.84
2022-12-03T16:47:01.641Z,74.88
2022-12-03T16:49:31.357Z,74.85
2022-12-03T16:51:59.668Z,74.78
2022-12-03T16:54:28.147Z,74.75
2022-12-03T16:56:56.487Z,74.80
2022-12-03T16:59:24.812Z,74.75
2022-12-03T17:01:53.157Z,75.11
2022-12-03T17:04:21.528Z,74.79
2022-12-03T17:06:51.375Z,74.89
2022-12-03T17:09:19.693Z,74.96
2022-12-03T17:11:48.231Z,74.91
2022-12-03T17:14:16.659Z,74.88
2022-12-03T17:16:45.129Z,75.17
2022-12-03T17:19:13.415Z,75.11
2022-12-03T17:21:41.774Z,75.04
2022-12-03T17:24:12.760Z,75.44
2022-12-03T17:26:42.201Z,75.22
2022-12-03T17:29:10.531Z,75.41
2022-12-03T17:31:42.152Z,75.15
2022-12-03T17:34:10.996Z,75.23
2022-12-03T17:36:39.407Z,75.33
2022-12-03T17:39:07.720Z,75.31
2022-12-03T17:41:37.508Z,75.15
2022-12-03T17:44:10.160Z,74.91
2022-12-03T17:46:39.809Z,75.04
2022-12-03T17:49:08.232Z,74.98
2022-12-03T17:51:36.519Z,74.92
2022-12-03T17:54:04.997Z,75.06
2022-12-03T17:56:33.846Z,75.09
2022-12-03T17:59:03.515Z,74.78
2022-12-03T18:01:32.359Z,75.29
2022-12-03T18:04:00.767Z,75.00
2022-12-03T18:06:29.170Z,74.88
2022-12-03T18:08:57.587Z,75.10
2022-12-03T18:11:26.463Z,75.10
2022-12-03T18:13:56.017Z,75.52
2022-12-03T18:16:26.121Z,75.57
2022-12-03T18:18:57.080Z,75.41
2022-12-03T18:21:28.316Z,75.35
2022-12-03T18:23:56.902Z,75.78
2022-12-03T18:26:26.051Z,75.64
2022-12-03T18:28:54.664Z,75.38
2022-12-03T18:31:23.782Z,75.92
2022-12-03T18:33:53.851Z,75.39
2022-12-03T18:36:24.673Z,75.37
2022-12-03T18:38:55.523Z,75.70
2022-12-03T18:41:25.333Z,75.53
2022-12-03T18:43:53.674Z,75.62
2022-12-03T18:46:51.950Z,76.05
2022-12-03T18:49:12.791Z,76.18
2022-12-03T18:51:41.136Z,76.24
2022-12-03T18:54:13.538Z,76.34
2022-12-03T18:56:43.085Z,76.55
2022-12-03T18:59:12.357Z,76.77
2022-12-03T19:01:40.751Z,76.81
2022-12-03T19:04:12.298Z,76.78
2022-12-03T19:06:40.837Z,77.15
2022-12-03T19:09:09.211Z,77.08
2022-12-03T19:11:37.509Z,76.76
2022-12-03T19:14:05.770Z,76.77
2022-12-03T19:16:37.101Z,77.28
2022-12-03T19:19:05.456Z,76.70
2022-12-03T19:21:35.192Z,76.94
2022-12-03T19:24:23.663Z,76.85
2022-12-03T19:26:55.728Z,76.05
2022-12-03T19:29:24.357Z,76.51
2022-12-03T19:31:53.419Z,76.47
2022-12-03T19:34:21.845Z,76.24
2022-12-03T19:36:51.558Z,76.45
2022-12-03T19:39:19.988Z,76.61
2022-12-03T19:41:48.340Z,76.36
2022-12-03T19:44:18.138Z,76.18
2022-12-03T19:46:46.778Z,76.62
2022-12-03T19:49:17.651Z,76.26
2022-12-03T19:51:46.059Z,76.19
2022-12-03T19:54:16.531Z,76.19
2022-12-03T19:56:45.689Z,76.21
2022-12-03T19:59:14.911Z,76.69
2022-12-03T20:01:43.661Z,76.85
2022-12-03T20:04:12.980Z,77.19
2022-12-03T20:06:41.423Z,77.01
2022-12-03T20:09:12.434Z,77.01
2022-12-03T20:11:44.637Z,76.92
2022-12-03T20:14:15.894Z,77.01
2022-12-03T20:16:44.417Z,77.05
2022-12-03T20:19:18.258Z,77.10
2022-12-03T20:21:46.991Z,77.01
2022-12-03T20:24:17.392Z,77.27
2022-12-03T20:26:47.313Z,77.34
2022-12-03T20:29:15.658Z,78.23
2022-12-03T20:31:44.051Z,78.50
2022-12-03T20:34:12.888Z,78.77
2022-12-03T20:36:41.163Z,78.67
2022-12-03T20:39:09.639Z,78.50
2022-12-03T20:41:39.016Z,78.49
2022-12-03T20:44:10.565Z,78.62
2022-12-03T20:46:39.042Z,78.74
2022-12-03T20:49:07.407Z,78.95
2022-12-03T20:51:36.571Z,78.76
2022-12-03T20:54:05.375Z,78.62
2022-12-03T20:56:35.773Z,78.59
2022-12-03T20:59:06.175Z,78.63
2022-12-03T21:01:36.574Z,78.83
2022-12-03T21:04:06.868Z,78.27
2022-12-03T21:06:37.036Z,78.64
2022-12-03T21:09:06.948Z,78.63
2022-12-03T21:11:36.225Z,78.70
2022-12-03T21:14:05.378Z,78.93
2022-12-03T21:17:07.212Z,79.05
2022-12-03T21:19:27.899Z,79.30
2022-12-03T21:21:56.206Z,79.04
2022-12-03T21:24:24.581Z,79.10
2022-12-03T21:26:53.010Z,79.02
2022-12-03T21:29:21.301Z,79.05
2022-12-03T21:31:51.282Z,78.76
2022-12-03T21:34:19.467Z,78.76
2022-12-03T21:36:47.821Z,79.02
2022-12-03T21:39:16.332Z,79.20
2022-12-03T21:42:33.994Z,79.41
2022-12-03T21:44:33.139Z,79.04
2022-12-03T21:47:09.509Z,79.13
2022-12-03T21:49:41.271Z,78.95
2022-12-03T21:52:09.520Z,78.77
2022-12-03T21:54:37.741Z,78.62
2022-12-03T21:57:05.992Z,78.47
2022-12-03T21:59:34.384Z,78.14
2022-12-03T22:02:04.944Z,78.25
2022-12-03T22:04:33.432Z,77.74
2022-12-03T22:07:01.626Z,78.03
2022-12-03T22:09:29.935Z,77.94
2022-12-03T22:12:00.777Z,77.77
2022-12-03T22:14:29.237Z,77.85
2022-12-03T22:16:57.530Z,77.56
2022-12-03T22:19:27.716Z,77.47
2022-12-03T22:21:55.981Z,77.17
2022-12-03T22:24:24.341Z,77.54
2022-12-03T22:26:55.433Z,77.29
2022-12-03T22:29:23.632Z,77.54
2022-12-03T22:31:51.856Z,77.34
2022-12-03T22:34:20.129Z,77.54
2022-12-03T22:36:49.757Z,77.48
2022-12-03T22:39:17.994Z,77.20
2022-12-03T22:41:46.222Z,77.06
2022-12-03T22:44:14.772Z,76.84
2022-12-03T22:46:43.050Z,76.51
2022-12-03T22:49:13.465Z,76.91
2022-12-03T22:51:41.857Z,76.61
2022-12-03T22:54:13.051Z,76.24
2022-12-03T22:56:41.838Z,76.56
2022-12-03T22:59:10.099Z,76.08
2022-12-03T23:01:40.319Z,76.20
2022-12-03T23:04:09.812Z,76.24
2022-12-03T23:06:38.604Z,76.15
2022-12-03T23:09:08.331Z,76.22
2022-12-03T23:11:38.318Z,75.84
2022-12-03T23:14:06.826Z,75.86
2022-12-03T23:16:35.196Z,75.84
2022-12-03T23:19:04.146Z,75.55
2022-12-03T23:21:34.347Z,75.44
2022-12-03T23:24:04.409Z,76.10
2022-12-03T23:26:37.731Z,75.93
2022-12-03T23:29:08.702Z,76.46
2022-12-03T23:31:37.443Z,75.79
2022-12-03T23:34:06.478Z,75.73
2022-12-03T23:36:35.388Z,75.80
2022-12-03T23:39:04.397Z,75.87
2022-12-03T23:41:32.931Z,75.80
2022-12-03T23:44:02.816Z,75.59
2022-12-03T23:46:31.348Z,76.03
2022-12-03T23:49:00.691Z,75.88
2022-12-03T23:51:28.970Z,75.96
2022-12-03T23:53:58.176Z,76.14
2022-12-03T23:56:29.283Z,75.79
2022-12-03T23:58:58.457Z,75.57
